Time;durP1;ratioP1;P1;durP2;ratioP2;P2;SDS_P1;SDS_P2;PMS_P1;PMS_P2;Temp;Humidity;BMP_temperature;BMP_pressure;BME280_temperature;BME280_humidity;BME280_pressure;Samples;Min_cycle;Max_cycle;Signal;HPM_P1;HPM_P2
2023/07/02 00:00:19;;;;;;;0.22;0.22;;;;;;;15.76;100.00;98398.81;5047295;28;20048;-61
2023/07/02 00:02:44;;;;;;;0.30;0.30;;;;;;;15.75;100.00;98394.50;5047117;28;20453;-60
2023/07/02 00:05:09;;;;;;;0.20;0.20;;;;;;;15.65;100.00;98372.50;5047172;28;20030;-60
2023/07/02 00:07:36;;;;;;;0.20;0.20;;;;;;;15.74;100.00;98392.84;5047443;28;20020;-60
2023/07/02 00:10:02;;;;;;;0.20;0.20;;;;;;;15.69;100.00;98387.03;5047012;28;20113;-59
2023/07/02 00:12:27;;;;;;;1.75;0.88;;;;;;;15.69;100.00;98387.03;5046761;28;20026;-60
2023/07/02 00:14:53;;;;;;;0.30;0.30;;;;;;;15.63;100.00;98374.34;5047183;28;20018;-60
2023/07/02 00:17:19;;;;;;;0.20;0.20;;;;;;;15.61;100.00;98375.28;5046941;28;20047;-59
2023/07/02 00:19:46;;;;;;;0.20;0.20;;;;;;;15.61;100.00;98372.69;5047147;28;20485;-60
2023/07/02 00:22:12;;;;;;;0.20;0.20;;;;;;;15.63;100.00;98377.81;5046979;28;20028;-60
2023/07/02 00:24:38;;;;;;;0.25;0.25;;;;;;;15.66;100.00;98379.38;5046880;28;20096;-60
2023/07/02 00:27:04;;;;;;;0.47;0.47;;;;;;;15.64;100.00;98376.06;5046685;28;20054;-60
2023/07/02 00:29:29;;;;;;;0.70;0.70;;;;;;;15.62;100.00;98370.91;5046705;28;20025;-60
2023/07/02 00:31:54;;;;;;;0.20;0.20;;;;;;;15.61;100.00;98370.06;5046656;28;20021;-60
2023/07/02 00:34:20;;;;;;;0.20;0.20;;;;;;;15.64;100.00;98370.81;5046509;28;20033;-60
2023/07/02 00:36:45;;;;;;;1.25;1.15;;;;;;;15.61;99.92;98367.44;5045571;28;20017;-59
2023/07/02 00:39:11;;;;;;;0.30;0.30;;;;;;;15.65;100.00;98364.63;5046434;28;20022;-60
2023/07/02 00:41:37;;;;;;;0.20;0.20;;;;;;;15.59;99.66;98356.22;5045953;28;20022;-60
2023/07/02 00:44:04;;;;;;;0.20;0.20;;;;;;;15.45;99.40;98341.41;5046491;28;20053;-60
2023/07/02 00:46:30;;;;;;;0.20;0.20;;;;;;;15.57;99.39;98360.75;5046281;28;20022;-60
2023/07/02 00:48:56;;;;;;;0.20;0.20;;;;;;;15.58;99.26;98351.94;5045006;28;20366;-59
2023/07/02 00:51:24;;;;;;;1.05;1.05;;;;;;;15.60;99.65;98354.47;5046005;28;20025;-58
2023/07/02 00:53:52;;;;;;;0.20;0.20;;;;;;;15.57;99.60;98352.03;5046278;28;20032;-58
2023/07/02 00:56:18;;;;;;;0.20;0.20;;;;;;;15.60;98.79;98355.31;5045823;28;20052;-57
2023/07/02 00:58:50;;;;;;;0.20;0.20;;;;;;;15.61;99.17;98350.91;5046122;28;20580;-56
2023/07/02 01:01:16;;;;;;;0.30;0.30;;;;;;;15.58;98.26;98345.88;5045902;28;20447;-58
2023/07/02 01:03:59;;;;;;;0.20;0.20;;;;;;;15.63;97.86;98349.03;5046111;28;20044;-56
2023/07/02 01:06:26;;;;;;;0.20;0.20;;;;;;;15.59;98.14;98343.16;5045736;28;20454;-56
2023/07/02 01:08:54;;;;;;;0.20;0.20;;;;;;;15.61;98.37;98345.69;5045860;28;20030;-56
2023/07/02 01:11:23;;;;;;;1.40;1.23;;;;;;;15.65;97.83;98341.09;5045584;28;20029;-56
2023/07/02 01:13:51;;;;;;;0.30;0.30;;;;;;;15.60;98.15;98329.16;5046116;28;20066;-58
2023/07/02 01:16:17;;;;;;;0.20;0.20;;;;;;;15.64;97.96;98334.19;5045745;28;20029;-55
2023/07/02 01:18:43;;;;;;;0.30;0.30;;;;;;;15.64;98.29;98329.78;5045880;28;20037;-57
2023/07/02 01:21:09;;;;;;;0.30;0.30;;;;;;;15.60;97.84;98333.53;5045603;28;20081;-56
2023/07/02 01:23:34;;;;;;;0.20;0.20;;;;;;;15.59;97.19;98332.69;5045733;28;20048;-56
2023/07/02 01:26:00;;;;;;;0.20;0.20;;;;;;;15.57;97.60;98331.13;5045526;28;20041;-58
2023/07/02 01:28:35;;;;;;;0.20;0.20;;;;;;;15.59;97.46;98334.50;5045884;28;20021;-57
2023/07/02 01:31:00;;;;;;;0.20;0.20;;;;;;;15.60;97.58;98320.47;5045465;28;20025;-57
2023/07/02 01:33:26;;;;;;;0.20;0.20;;;;;;;15.59;97.39;98310.97;5045498;28;20045;-55
2023/07/02 01:35:51;;;;;;;0.20;0.20;;;;;;;15.57;96.96;98310.19;5040785;28;20129;-58
2023/07/02 01:38:17;;;;;;;0.20;0.20;;;;;;;15.58;96.57;98311.88;5025716;28;20490;-55
2023/07/02 01:40:42;;;;;;;0.30;0.30;;;;;;;15.60;96.84;98304.78;5025509;28;20081;-54
2023/07/02 01:43:08;;;;;;;0.30;0.30;;;;;;;15.63;96.98;98301.13;5025721;28;20022;-59
2023/07/02 01:45:33;;;;;;;0.20;0.20;;;;;;;15.58;96.29;98293.56;5025635;28;20102;-58
2023/07/02 01:47:58;;;;;;;0.32;0.32;;;;;;;15.65;96.63;98294.88;5025436;28;20084;-58
2023/07/02 01:50:24;;;;;;;0.28;0.28;;;;;;;15.68;96.51;98289.44;5025571;28;20479;-58
2023/07/02 01:52:49;;;;;;;0.22;0.22;;;;;;;15.66;96.94;98293.06;5025575;28;20089;-56
2023/07/02 01:55:16;;;;;;;0.30;0.30;;;;;;;15.63;96.62;98290.66;5025524;28;20041;-57
2023/07/02 01:57:42;;;;;;;0.20;0.20;;;;;;;15.60;96.36;98282.09;5025465;28;20032;-57
2023/07/02 02:00:09;;;;;;;0.22;0.22;;;;;;;15.63;96.79;98290.66;5025411;28;20061;-59
2023/07/02 02:02:34;;;;;;;0.30;0.30;;;;;;;15.59;96.31;98290.03;5025496;28;20036;-60
2023/07/02 02:05:00;;;;;;;0.20;0.20;;;;;;;15.44;96.31;98286.59;5024275;28;20066;-61
2023/07/02 02:07:26;;;;;;;0.28;0.28;;;;;;;15.29;96.55;98294.47;5025348;28;20030;-63
2023/07/02 02:09:52;;;;;;;0.40;0.40;;;;;;;15.16;97.14;98289.16;5024010;28;20026;-64
2023/07/02 02:12:17;;;;;;;1.48;1.40;;;;;;;15.03;97.56;98290.84;5025195;28;20114;-64
2023/07/02 02:14:42;;;;;;;0.22;0.22;;;;;;;14.92;98.20;98288.88;5025357;28;20029;-63
2023/07/02 02:17:08;;;;;;;0.20;0.20;;;;;;;14.84;99.15;98295.41;5025287;28;20053;-64
2023/07/02 02:19:33;;;;;;;0.25;0.25;;;;;;;14.75;99.76;98291.56;5024104;28;20030;-63
2023/07/02 02:21:59;;;;;;;0.20;0.20;;;;;;;14.69;100.00;98291.06;5025231;28;20026;-64
2023/07/02 02:24:24;;;;;;;0.30;0.30;;;;;;;14.57;100.00;98283.03;5025321;28;20355;-63
2023/07/02 02:26:49;;;;;;;3.22;3.03;;;;;;;14.58;100.00;98289.09;5024866;28;20057;-62
2023/07/02 02:29:15;;;;;;;0.30;0.30;;;;;;;14.56;100.00;98302.25;5025098;28;20021;-62
2023/07/02 02:31:40;;;;;;;0.50;0.50;;;;;;;14.56;100.00;98290.97;5025037;28;20022;-61
2023/07/02 02:34:06;;;;;;;0.30;0.30;;;;;;;14.45;100.00;98282.00;5027144;28;20029;-61
2023/07/02 02:36:32;;;;;;;0.30;0.30;;;;;;;14.53;100.00;98288.53;5045032;28;20029;-61
2023/07/02 02:38:57;;;;;;;0.30;0.30;;;;;;;14.55;100.00;98290.13;5044869;28;20033;-63
2023/07/02 02:41:23;;;;;;;0.20;0.20;;;;;;;14.59;100.00;98285.56;5044661;28;20026;-62
2023/07/02 02:43:48;;;;;;;0.30;0.30;;;;;;;14.58;100.00;98284.72;5044702;28;20103;-62
2023/07/02 02:46:19;;;;;;;0.20;0.20;;;;;;;14.57;100.00;98288.25;5044852;28;20327;-60
2023/07/02 02:48:45;;;;;;;0.60;0.60;;;;;;;14.56;100.00;98281.38;5044765;28;20040;-61
2023/07/02 02:51:10;;;;;;;0.30;0.30;;;;;;;14.55;100.00;98289.28;5044488;28;20108;-61
2023/07/02 02:53:35;;;;;;;0.73;0.73;;;;;;;14.50;100.00;98282.53;5044935;28;20584;-61
2023/07/02 02:56:01;;;;;;;0.30;0.30;;;;;;;14.53;100.00;98286.75;5044303;28;20032;-61
2023/07/02 02:58:27;;;;;;;0.30;0.30;;;;;;;14.56;100.00;98291.81;5044733;28;20018;-61
2023/07/02 03:00:53;;;;;;;0.30;0.30;;;;;;;14.53;100.00;98278.09;5046049;28;20369;-60
2023/07/02 03:03:20;;;;;;;0.30;0.30;;;;;;;14.45;100.00;98279.41;5048389;28;20087;-61
2023/07/02 03:05:48;;;;;;;0.40;0.40;;;;;;;14.55;100.00;98287.53;5046914;28;20466;-62
2023/07/02 03:08:13;;;;;;;0.20;0.20;;;;;;;14.59;100.00;98293.38;5048535;28;20026;-62
2023/07/02 03:10:39;;;;;;;0.30;0.30;;;;;;;14.59;100.00;98290.78;5030145;28;20029;-60
2023/07/02 03:13:04;;;;;;;0.30;0.30;;;;;;;14.59;100.00;98291.63;5048433;28;20013;-61
2023/07/02 03:15:30;;;;;;;0.30;0.30;;;;;;;14.58;100.00;98292.56;5048285;28;20029;-61
2023/07/02 03:17:56;;;;;;;0.30;0.30;;;;;;;14.59;100.00;98286.41;5047014;28;20028;-60
2023/07/02 03:20:21;;;;;;;0.30;0.30;;;;;;;14.60;100.00;98282.84;5048135;28;20029;-61
2023/07/02 03:22:47;;;;;;;0.45;0.45;;;;;;;14.62;100.00;98281.00;5048026;28;20028;-60
2023/07/02 03:25:12;;;;;;;0.20;0.20;;;;;;;14.66;100.00;98286.03;5048087;28;20021;-59
2023/07/02 03:27:38;;;;;;;0.25;0.25;;;;;;;14.61;100.00;98273.25;5046993;28;20052;-59
2023/07/02 03:30:04;;;;;;;0.30;0.30;;;;;;;14.66;100.00;98281.66;5046817;28;20442;-58
2023/07/02 03:32:29;;;;;;;0.20;0.20;;;;;;;14.70;100.00;98282.28;5047739;28;20411;-58
2023/07/02 03:34:55;;;;;;;0.20;0.20;;;;;;;14.72;100.00;98285.66;5047801;28;20049;-59
2023/07/02 03:37:20;;;;;;;0.30;0.30;;;;;;;14.69;100.00;98283.25;5047930;28;20021;-57
2023/07/02 03:39:45;;;;;;;0.30;0.30;;;;;;;14.73;100.00;98282.09;5047796;28;20017;-58
2023/07/02 03:42:11;;;;;;;0.28;0.28;;;;;;;14.70;100.00;98287.53;5047669;28;20030;-57
2023/07/02 03:44:36;;;;;;;0.35;0.35;;;;;;;14.59;100.00;98275.97;5047770;28;20021;-58
2023/07/02 03:47:02;;;;;;;0.30;0.30;;;;;;;14.66;100.00;98291.25;5047706;28;20032;-57
2023/07/02 03:49:27;;;;;;;0.30;0.30;;;;;;;14.69;100.00;98288.47;5047602;28;20485;-58
2023/07/02 03:51:52;;;;;;;0.30;0.30;;;;;;;14.68;100.00;98287.63;5047430;28;20424;-58
2023/07/02 03:54:18;;;;;;;0.35;0.35;;;;;;;14.77;100.00;98285.38;5046234;28;20086;-58
2023/07/02 03:56:43;;;;;;;0.30;0.30;;;;;;;14.85;100.00;98289.25;5047112;28;20021;-59
2023/07/02 03:59:08;;;;;;;0.22;0.22;;;;;;;14.92;100.00;98292.31;5047426;28;20396;-57
2023/07/02 04:01:34;;;;;;;0.30;0.30;;;;;;;14.97;100.00;98276.38;5047284;28;20508;-58
2023/07/02 04:03:59;;;;;;;0.30;0.30;;;;;;;15.20;100.00;98295.88;5046150;28;20059;-58
2023/07/02 04:06:25;;;;;;;0.40;0.40;;;;;;;15.58;100.00;98294.41;5047269;28;20024;-59
2023/07/02 04:08:50;;;;;;;0.30;0.30;;;;;;;16.09;100.00;98276.41;5047425;28;20041;-59
2023/07/02 04:11:16;;;;;;;0.30;0.30;;;;;;;16.21;100.00;98288.69;5046737;28;20032;-59
2023/07/02 04:13:41;;;;;;;1.95;1.85;;;;;;;16.13;100.00;98290.13;5047287;28;20454;-60
2023/07/02 04:16:07;;;;;;;0.28;0.28;;;;;;;15.98;98.15;98292.81;5047132;28;20032;-59
2023/07/02 04:18:32;;;;;;;0.22;0.22;;;;;;;16.01;98.64;98295.22;5047203;28;20029;-60
2023/07/02 04:20:58;;;;;;;0.30;0.30;;;;;;;15.89;99.20;98303.84;5047003;28;20095;-59
2023/07/02 04:23:24;;;;;;;0.30;0.30;;;;;;;15.80;98.68;98298.25;5046883;28;20048;-58
2023/07/02 04:25:50;;;;;;;0.20;0.20;;;;;;;15.76;98.67;98302.03;5029069;28;20088;-60
2023/07/02 04:28:16;;;;;;;0.25;0.25;;;;;;;15.58;98.00;98289.19;5047138;28;20049;-60
2023/07/02 04:30:42;;;;;;;0.30;0.30;;;;;;;15.54;98.15;98303.41;5047025;28;20021;-60
2023/07/02 04:33:07;;;;;;;0.30;0.30;;;;;;;15.39;97.58;98286.03;5046934;28;20111;-59
2023/07/02 04:35:34;;;;;;;0.30;0.30;;;;;;;15.36;96.80;98303.63;5046401;28;20071;-58
2023/07/02 04:38:00;;;;;;;0.20;0.20;;;;;;;15.34;95.91;98308.09;5046993;28;20030;-59
2023/07/02 04:40:26;;;;;;;0.20;0.20;;;;;;;15.30;96.68;98314.47;5028725;28;20466;-58
2023/07/02 04:42:57;;;;;;;0.30;0.30;;;;;;;15.26;95.67;98307.72;5046496;28;20036;-58
2023/07/02 04:45:24;;;;;;;0.30;0.30;;;;;;;15.31;95.84;98310.91;5046692;28;20026;-58
2023/07/02 04:47:50;;;;;;;0.60;0.60;;;;;;;15.29;94.85;98317.97;5045915;28;20105;-56
2023/07/02 04:50:16;;;;;;;2.17;2.03;;;;;;;15.27;92.45;98308.56;5045132;28;20025;-60
2023/07/02 04:52:41;;;;;;;0.30;0.30;;;;;;;15.25;92.71;98319.13;5045777;28;20022;-57
2023/07/02 04:55:07;;;;;;;2.30;1.35;;;;;;;15.22;92.81;98304.44;5046416;28;20025;-59
2023/07/02 04:57:33;;;;;;;1.48;1.38;;;;;;;15.94;91.85;98320.91;5046085;28;20018;-58
2023/07/02 04:59:58;;;;;;;0.20;0.20;;;;;;;16.97;97.46;98314.22;5046331;28;20036;-59
2023/07/02 05:02:24;;;;;;;0.20;0.20;;;;;;;17.92;93.89;98313.81;5046152;28;20033;-59
2023/07/02 05:04:49;;;;;;;1.17;1.08;;;;;;;18.78;97.18;98315.44;5046185;28;20025;-58
2023/07/02 05:07:16;;;;;;;0.45;0.45;;;;;;;19.41;96.36;98312.38;5046001;28;20021;-58
2023/07/02 05:09:41;;;;;;;0.20;0.20;;;;;;;19.82;93.09;98319.72;5044992;28;20037;-59
2023/07/02 05:12:07;;;;;;;0.30;0.30;;;;;;;19.96;80.91;98321.22;5045700;28;20088;-59
2023/07/02 05:14:32;;;;;;;1.75;0.98;;;;;;;20.05;84.61;98320.50;5046108;28;20067;-59
2023/07/02 05:16:57;;;;;;;0.52;0.52;;;;;;;19.91;78.81;98324.22;5045803;28;20056;-59
2023/07/02 05:19:23;;;;;;;0.20;0.20;;;;;;;19.77;78.38;98327.13;5045742;28;20017;-60
2023/07/02 05:21:48;;;;;;;0.30;0.30;;;;;;;19.64;79.61;98320.22;5045782;28;20021;-59
2023/07/02 05:24:14;;;;;;;0.20;0.20;;;;;;;19.54;76.05;98328.03;5045187;28;20025;-59
2023/07/02 05:26:39;;;;;;;0.20;0.20;;;;;;;19.29;71.22;98322.06;5045603;28;20079;-59
2023/07/02 05:29:05;;;;;;;0.20;0.20;;;;;;;19.15;68.37;98324.94;5045754;28;20063;-60
2023/07/02 05:31:30;;;;;;;0.20;0.20;;;;;;;19.26;70.82;98314.44;5045716;28;20021;-60
2023/07/02 05:33:56;;;;;;;0.50;0.50;;;;;;;19.35;66.65;98319.91;5045438;28;20021;-58
2023/07/02 05:36:22;;;;;;;0.20;0.20;;;;;;;19.28;66.90;98322.19;5045598;28;20466;-59
2023/07/02 05:38:47;;;;;;;0.20;0.20;;;;;;;19.28;69.89;98333.53;5045540;28;20022;-60
2023/07/02 05:41:22;;;;;;;0.20;0.20;;;;;;;19.06;68.17;98334.34;5045230;28;20033;-59
2023/07/02 05:43:48;;;;;;;0.45;0.45;;;;;;;18.86;68.55;98338.50;5045394;28;20025;-61
2023/07/02 05:46:14;;;;;;;0.30;0.30;;;;;;;18.71;69.69;98330.81;5045445;28;20055;-58
2023/07/02 05:48:40;;;;;;;0.20;0.20;;;;;;;18.57;70.56;98345.00;5045449;28;20025;-59
2023/07/02 05:51:07;;;;;;;0.20;0.20;;;;;;;18.25;65.74;98341.22;5045191;28;20032;-60
2023/07/02 05:53:32;;;;;;;0.20;0.20;;;;;;;18.06;68.25;98347.78;5045312;28;20085;-59
2023/07/02 05:55:58;;;;;;;6.65;3.30;;;;;;;17.88;69.31;98335.97;5045008;28;20061;-60
2023/07/02 05:58:23;;;;;;;0.20;0.20;;;;;;;17.81;70.37;98338.22;5045497;28;20021;-59
2023/07/02 06:00:49;;;;;;;0.20;0.20;;;;;;;17.63;71.35;98333.34;5045085;28;20470;-60
2023/07/02 06:03:21;;;;;;;0.68;0.68;;;;;;;17.74;72.09;98345.69;5045343;28;20026;-60
2023/07/02 06:05:50;;;;;;;0.20;0.20;;;;;;;17.83;71.17;98339.78;5045152;28;20047;-60
2023/07/02 06:08:16;;;;;;;0.20;0.20;;;;;;;17.93;72.67;98336.50;5045236;28;20025;-60
2023/07/02 06:10:42;;;;;;;0.20;0.20;;;;;;;17.91;70.01;98338.38;5044932;28;20033;-60
2023/07/02 06:13:08;;;;;;;0.20;0.20;;;;;;;17.77;69.27;98348.09;5044717;28;20387;-60
2023/07/02 06:15:33;;;;;;;0.20;0.20;;;;;;;17.69;70.54;98330.28;5045099;28;20025;-60
2023/07/02 06:17:58;;;;;;;0.30;0.30;;;;;;;17.65;70.20;98343.72;5044913;28;20043;-59
2023/07/02 06:20:24;;;;;;;2.20;1.05;;;;;;;17.61;70.49;98348.34;5045079;28;20028;-59
2023/07/02 06:22:49;;;;;;;0.20;0.20;;;;;;;17.67;72.99;98345.28;5044807;28;20026;-60
2023/07/02 06:25:14;;;;;;;0.20;0.20;;;;;;;17.79;70.55;98348.00;5027379;28;20022;-59
2023/07/02 06:27:40;;;;;;;0.30;0.30;;;;;;;18.14;68.93;98349.03;5044776;28;20036;-60
2023/07/02 06:30:06;;;;;;;0.20;0.20;;;;;;;18.56;71.15;98344.16;5045050;28;20036;-61
2023/07/02 06:32:32;;;;;;;0.20;0.20;;;;;;;18.69;70.10;98349.34;5044752;28;20025;-60
2023/07/02 06:34:57;;;;;;;1.75;1.65;;;;;;;18.76;69.69;98347.09;5046735;28;20041;-60
2023/07/02 06:37:23;;;;;;;4.03;1.77;;;;;;;18.73;68.25;98344.69;5048914;28;20031;-60
2023/07/02 06:39:48;;;;;;;0.20;0.20;;;;;;;18.61;66.56;98348.25;5049009;28;20515;-60
2023/07/02 06:42:14;;;;;;;0.30;0.30;;;;;;;18.48;67.73;98357.06;5048565;28;20025;-60
2023/07/02 06:44:41;;;;;;;0.20;0.20;;;;;;;18.32;68.00;98342.41;5048721;28;20041;-60
2023/07/02 06:47:07;;;;;;;0.30;0.30;;;;;;;18.30;66.49;98349.59;5048760;28;20109;-60
2023/07/02 06:49:32;;;;;;;0.20;0.20;;;;;;;18.37;66.80;98354.41;5048716;28;20025;-60
2023/07/02 06:51:57;;;;;;;0.40;0.40;;;;;;;18.79;69.61;98349.50;5048568;28;20429;-60
2023/07/02 06:54:25;;;;;;;0.47;0.47;;;;;;;19.58;64.90;98360.19;5048717;28;20028;-61
2023/07/02 06:56:50;;;;;;;0.20;0.20;;;;;;;20.15;68.12;98361.88;5048448;28;20025;-59
2023/07/02 06:59:23;;;;;;;0.30;0.30;;;;;;;20.37;62.79;98360.13;5048559;28;20029;-58
2023/07/02 07:01:49;;;;;;;0.30;0.30;;;;;;;20.40;60.15;98365.97;5048433;28;20088;-58
2023/07/02 07:04:14;;;;;;;0.20;0.20;;;;;;;20.41;60.60;98374.72;5048590;28;20049;-57
2023/07/02 07:06:40;;;;;;;0.20;0.20;;;;;;;20.24;59.31;98369.03;5048127;28;20056;-57
2023/07/02 07:09:05;;;;;;;0.20;0.20;;;;;;;20.11;61.89;98371.00;5048485;28;20093;-60
2023/07/02 07:11:31;;;;;;;0.20;0.20;;;;;;;19.80;60.08;98364.59;5047799;28;20045;-59
2023/07/02 07:13:56;;;;;;;0.20;0.20;;;;;;;19.93;59.09;98358.34;5048149;28;20017;-60
2023/07/02 07:16:22;;;;;;;0.17;0.17;;;;;;;20.22;59.59;98368.34;5048115;28;20033;-62
2023/07/02 07:18:48;;;;;;;0.20;0.20;;;;;;;20.45;60.37;98357.69;5048262;28;20025;-62
2023/07/02 07:21:13;;;;;;;0.85;0.85;;;;;;;20.36;56.44;98361.09;5048005;28;20024;-61
2023/07/02 07:23:39;;;;;;;0.20;0.20;;;;;;;20.25;59.60;98368.09;5048147;28;20054;-60
2023/07/02 07:26:05;;;;;;;1.20;1.10;;;;;;;20.14;58.38;98368.97;5047789;28;20025;-61
2023/07/02 07:28:31;;;;;;;0.20;0.20;;;;;;;20.25;58.22;98368.09;5046837;28;20036;-61
2023/07/02 07:30:56;;;;;;;0.20;0.20;;;;;;;20.11;56.42;98356.03;5046887;28;20076;-59
2023/07/02 07:33:21;;;;;;;0.20;0.20;;;;;;;20.05;58.76;98374.97;5047947;28;20021;-57
2023/07/02 07:35:47;;;;;;;1.00;1.00;;;;;;;19.82;56.81;98382.91;5047737;28;20115;-57
2023/07/02 07:38:16;;;;;;;0.20;0.20;;;;;;;19.82;57.87;98375.00;5030034;28;20021;-56
2023/07/02 07:40:42;;;;;;;4.07;2.05;;;;;;;19.74;57.14;98377.41;5047919;28;20025;-56
2023/07/02 07:43:08;;;;;;;0.30;0.30;;;;;;;19.45;59.74;98368.22;5047472;28;20072;-57
2023/07/02 07:45:33;;;;;;;0.30;0.30;;;;;;;19.34;60.99;98373.47;5047368;28;20028;-56
2023/07/02 07:47:58;;;;;;;0.20;0.20;;;;;;;19.34;59.84;98370.84;5047091;28;20022;-61
2023/07/02 07:50:24;;;;;;;0.20;0.20;;;;;;;19.38;59.31;98369.63;5047611;28;20084;-60
2023/07/02 07:52:49;;;;;;;0.30;0.30;;;;;;;19.59;61.73;98359.22;5047316;28;20090;-60
2023/07/02 07:55:15;;;;;;;0.20;0.20;;;;;;;20.15;57.98;98361.88;5047570;28;20109;-59
2023/07/02 07:57:41;;;;;;;0.20;0.20;;;;;;;20.38;58.50;98365.28;5047162;28;20021;-60
2023/07/02 08:00:09;;;;;;;0.20;0.20;;;;;;;20.20;57.79;98365.00;5047537;28;20087;-60
2023/07/02 08:02:35;;;;;;;0.20;0.20;;;;;;;19.94;57.41;98357.38;5047136;28;20041;-59
2023/07/02 08:05:02;;;;;;;0.20;0.20;;;;;;;19.71;60.52;98367.97;5047185;28;20036;-57
2023/07/02 08:07:27;;;;;;;0.20;0.20;;;;;;;19.61;58.30;98359.97;5047054;28;20026;-58
2023/07/02 08:09:53;;;;;;;0.30;0.30;;;;;;;19.72;59.94;98364.38;5047034;28;20081;-53
2023/07/02 08:12:18;;;;;;;0.20;0.20;;;;;;;19.93;61.88;98363.59;5046781;28;20025;-57
2023/07/02 08:14:44;;;;;;;0.20;0.20;;;;;;;19.98;59.20;98350.91;5046914;28;20029;-54
2023/07/02 08:17:09;;;;;;;0.20;0.20;;;;;;;20.27;55.13;98352.16;5046777;28;20021;-58
2023/07/02 08:19:34;;;;;;;0.20;0.20;;;;;;;20.76;55.83;98360.44;5046773;28;20025;-58
2023/07/02 08:22:00;;;;;;;0.20;0.20;;;;;;;21.16;53.53;98358.88;5046371;28;20037;-58
2023/07/02 08:24:25;;;;;;;0.30;0.30;;;;;;;21.08;54.90;98355.19;5046999;28;20374;-57
2023/07/02 08:26:51;;;;;;;0.22;0.22;;;;;;;21.38;54.60;98362.28;5046625;28;20052;-57
2023/07/02 08:29:16;;;;;;;0.43;0.43;;;;;;;21.23;52.83;98364.44;5046841;28;20044;-57
2023/07/02 08:31:42;;;;;;;0.30;0.30;;;;;;;21.01;53.43;98363.63;5046541;28;20026;-58
2023/07/02 08:34:08;;;;;;;0.20;0.20;;;;;;;20.73;54.05;98367.75;5046722;28;20017;-54
2023/07/02 08:36:34;;;;;;;0.20;0.20;;;;;;;20.61;56.89;98362.53;5028948;28;20029;-55
2023/07/02 08:38:59;;;;;;;0.30;0.30;;;;;;;20.80;52.95;98364.47;5046914;28;20022;-59
2023/07/02 08:41:24;;;;;;;0.47;0.47;;;;;;;20.93;53.49;98363.44;5046216;28;20112;-59
2023/07/02 08:43:52;;;;;;;0.85;0.85;;;;;;;21.25;54.08;98370.41;5046494;28;20051;-59
2023/07/02 08:46:17;;;;;;;0.13;0.13;;;;;;;21.39;52.27;98371.06;5046658;28;20024;-54
2023/07/02 08:48:43;;;;;;;0.20;0.20;;;;;;;21.51;51.69;98364.69;5046422;28;20029;-56
2023/07/02 08:51:09;;;;;;;0.45;0.45;;;;;;;21.52;52.50;98363.72;5046473;28;20021;-54
2023/07/02 08:53:34;;;;;;;0.25;0.25;;;;;;;21.41;49.77;98374.38;5046322;28;20028;-57
2023/07/02 08:56:00;;;;;;;0.30;0.30;;;;;;;21.15;51.92;98354.53;5046177;28;20099;-60
2023/07/02 08:58:26;;;;;;;0.40;0.40;;;;;;;20.91;50.74;98368.84;5045354;28;20039;-60
2023/07/02 09:01:11;;;;;;;0.30;0.30;;;;;;;20.95;51.33;98377.34;5046233;28;20081;-61
2023/07/02 09:03:38;;;;;;;0.20;0.20;;;;;;;21.54;50.14;98366.22;5046098;28;20028;-61
2023/07/02 09:06:04;;;;;;;0.20;0.20;;;;;;;21.50;51.69;98367.47;5046159;28;20029;-59
2023/07/02 09:08:30;;;;;;;0.20;0.20;;;;;;;21.58;52.17;98367.63;5046243;28;20044;-61
2023/07/02 09:11:25;;;;;;;1.00;1.00;;;;;;;22.26;49.14;98370.56;5046079;28;20049;-61
2023/07/02 09:14:00;;;;;;;0.20;0.20;;;;;;;22.37;48.11;98365.13;5032814;28;20093;-61
2023/07/02 09:16:33;;;;;;;0.20;0.20;;;;;;;21.84;47.82;98361.06;5046125;28;20021;-61
2023/07/02 09:19:05;;;;;;;0.20;0.20;;;;;;;21.35;48.92;98378.38;5046200;28;20029;-61
2023/07/02 09:21:48;;;;;;;0.20;0.20;;;;;;;20.76;50.82;98381.53;5045837;28;20021;-61
2023/07/02 09:24:24;;;;;;;1.60;1.50;;;;;;;20.22;52.88;98384.16;5045752;28;20029;-60
2023/07/02 09:26:53;;;;;;;0.20;0.20;;;;;;;20.05;54.31;98374.97;5045753;28;20025;-59
2023/07/02 09:29:24;;;;;;;0.20;0.20;;;;;;;20.01;54.15;98382.28;5045965;28;20035;-61
2023/07/02 09:31:50;;;;;;;0.20;0.20;;;;;;;19.97;52.81;98393.16;5045674;28;20028;-60
2023/07/02 09:34:16;;;;;;;0.20;0.20;;;;;;;19.70;52.41;98395.22;5045559;28;20097;-60
2023/07/02 09:36:43;;;;;;;1.50;1.30;;;;;;;19.25;54.19;98381.13;5045641;28;20032;-60
2023/07/02 09:39:14;;;;;;;0.20;0.20;;;;;;;18.78;55.88;98389.88;5045516;28;20361;-60
2023/07/02 09:41:44;;;;;;;0.40;0.40;;;;;;;18.48;57.42;98391.22;5045103;28;20029;-60
2023/07/02 09:44:10;;;;;;;0.20;0.20;;;;;;;18.63;58.65;98386.59;5045229;28;20029;-61
2023/07/02 09:46:44;;;;;;;0.30;0.30;;;;;;;18.91;56.28;98384.50;5045284;28;20477;-61
2023/07/02 09:49:16;;;;;;;0.40;0.40;;;;;;;18.99;54.85;98378.69;5045310;28;20088;-61
2023/07/02 09:51:43;;;;;;;0.20;0.20;;;;;;;19.37;54.85;98389.88;5045332;28;20056;-60
2023/07/02 09:54:10;;;;;;;0.20;0.20;;;;;;;20.59;52.17;98390.81;5045253;28;20040;-60
2023/07/02 09:56:35;;;;;;;0.20;0.20;;;;;;;21.98;51.18;98381.78;5044885;28;20025;-60
2023/07/02 09:59:01;;;;;;;0.20;0.20;;;;;;;23.06;45.13;98382.75;5045014;28;20040;-60
2023/07/02 10:01:26;;;;;;;0.20;0.20;;;;;;;22.68;42.33;98377.41;5045263;28;20025;-60
2023/07/02 10:03:52;;;;;;;0.88;0.85;;;;;;;22.06;44.15;98382.91;5044928;28;20021;-60
2023/07/02 10:06:17;;;;;;;0.20;0.20;;;;;;;22.28;45.32;98374.72;5044816;28;20453;-60
2023/07/02 10:08:55;;;;;;;0.10;0.10;;;;;;;23.16;44.63;98385.38;5044882;28;20025;-61
2023/07/02 10:11:33;;;;;;;0.10;0.10;;;;;;;24.11;42.31;98380.84;5044501;28;20025;-60
2023/07/02 10:13:59;;;;;;;0.10;0.10;;;;;;;24.64;40.58;98391.63;5044747;28;20334;-61
2023/07/02 10:16:27;;;;;;;0.20;0.20;;;;;;;24.89;40.27;98381.22;5044865;28;20029;-61
2023/07/02 10:18:53;;;;;;;0.10;0.10;;;;;;;24.92;39.21;98390.72;5045153;28;20105;-61
2023/07/02 10:21:19;;;;;;;0.10;0.10;;;;;;;24.44;40.50;98369.78;5044783;28;20072;-61
2023/07/02 10:23:45;;;;;;;0.10;0.10;;;;;;;24.51;39.98;98374.31;5044668;28;20077;-61
2023/07/02 10:26:14;;;;;;;0.10;0.10;;;;;;;24.66;38.44;98379.06;5044766;28;20517;-61
2023/07/02 10:28:39;;;;;;;0.20;0.20;;;;;;;24.64;38.84;98381.03;5044871;28;20034;-61
2023/07/02 10:31:04;;;;;;;0.20;0.20;;;;;;;24.87;39.07;98373.38;5044670;28;20028;-60
2023/07/02 10:33:30;;;;;;;0.10;0.10;;;;;;;25.17;39.31;98383.75;5044743;28;20021;-60
2023/07/02 10:35:55;;;;;;;3.22;2.92;;;;;;;24.96;38.17;98384.94;5044726;28;20054;-60
2023/07/02 10:38:22;;;;;;;0.10;0.10;;;;;;;24.33;38.74;98389.41;5043294;28;20029;-60
2023/07/02 10:40:57;;;;;;;0.10;0.10;;;;;;;23.18;39.93;98385.22;5044593;28;20489;-60
2023/07/02 10:43:31;;;;;;;0.13;0.13;;;;;;;22.46;41.52;98387.25;5044396;28;20068;-61
2023/07/02 10:45:59;;;;;;;0.43;0.43;;;;;;;22.01;42.43;98384.16;5044577;28;20485;-61
2023/07/02 10:48:25;;;;;;;0.20;0.20;;;;;;;21.60;44.03;98393.91;5044705;28;20029;-60
2023/07/02 10:50:50;;;;;;;0.20;0.20;;;;;;;21.60;44.58;98378.06;5044470;28;20030;-60
2023/07/02 10:53:19;;;;;;;0.25;0.25;;;;;;;22.06;45.05;98378.44;5044353;28;20091;-59
2023/07/02 10:55:45;;;;;;;1.40;0.80;;;;;;;23.05;44.20;98370.50;5044472;28;20021;-61
2023/07/02 10:58:12;;;;;;;2.70;0.88;;;;;;;23.13;42.91;98373.25;5044473;28;20029;-60
2023/07/02 11:00:48;;;;;;;0.98;0.88;;;;;;;22.73;43.56;98367.22;5044516;28;20108;-60
2023/07/02 11:03:21;;;;;;;2.88;0.95;;;;;;;22.54;44.25;98366.22;5044165;28;20041;-59
2023/07/02 11:05:48;;;;;;;2.20;1.20;;;;;;;22.47;46.11;98370.44;5044495;28;20032;-61
2023/07/02 11:08:14;;;;;;;2.72;0.77;;;;;;;22.32;45.75;98358.59;5044451;28;20031;-61
2023/07/02 11:10:40;;;;;;;2.70;0.77;;;;;;;22.00;46.06;98366.63;5044303;28;20085;-60
2023/07/02 11:13:15;;;;;;;2.85;1.08;;;;;;;21.65;46.44;98352.06;5044370;28;20028;-60
2023/07/02 11:15:45;;;;;;;1.90;1.00;;;;;;;21.34;47.44;98352.13;5044381;28;20047;-59
2023/07/02 11:18:12;;;;;;;3.35;1.17;;;;;;;21.42;48.43;98354.94;5044409;28;20058;-60
2023/07/02 11:20:39;;;;;;;2.75;1.27;;;;;;;21.39;48.30;98355.22;5044482;28;20071;-60
2023/07/02 11:23:06;;;;;;;2.08;0.90;;;;;;;21.29;48.53;98358.63;5047408;28;20021;-60
2023/07/02 11:25:31;;;;;;;1.05;0.82;;;;;;;21.07;47.40;98361.47;5048324;28;20029;-60
2023/07/02 11:28:04;;;;;;;2.70;0.93;;;;;;;20.78;47.54;98374.28;5047663;28;20024;-60